Spencer Mountain, North Carolina
Current Conditions -  °F | °C
As of 3:54 PM on Wednesday 26 Nov 2014 (Local Time) from KAKH Reporting Station
Clear Clear  
Wind Chill: 51°   Ceiling: Unl
Heat Index: 51°   Visibility: 10mi
Dew Point: 40°   Wind: 5mph
Humidity: 66%   Direction: 90°E
Pressure: 29.98"   Gusts: NA
Location:  35.2631°N, 81.1487°W
Report Text: KAKH 262054Z AUTO 09004KT 10SM CLR 11/04 A2998 RMK AO2 SLP154 T01060044 56007
Loading
Personal Weather Stations






























Interactive Weather Map New forecast layout! Learn more

10-Day Weather Forecast

Advertisements
Track Severe Weather on mobile